sensor_id;sensor_type;location;lat;lon;timestamp;P1;durP1;ratioP1;P2;durP2;ratioP2
16199;SDS011;8207;52.494;4.654;2022-09-24T00:01:08;28.83;;;24.10;;
16199;SDS011;8207;52.494;4.654;2022-09-24T00:03:37;28.33;;;22.90;;
16199;SDS011;8207;52.494;4.654;2022-09-24T00:06:05;30.63;;;25.30;;
16199;SDS011;8207;52.494;4.654;2022-09-24T00:08:34;26.60;;;22.10;;
16199;SDS011;8207;52.494;4.654;2022-09-24T00:11:02;31.57;;;25.73;;
16199;SDS011;8207;52.494;4.654;2022-09-24T00:13:31;25.85;;;21.35;;
16199;SDS011;8207;52.494;4.654;2022-09-24T00:16:00;21.20;;;18.73;;
16199;SDS011;8207;52.494;4.654;2022-09-24T00:18:29;35.73;;;26.80;;
16199;SDS011;8207;52.494;4.654;2022-09-24T00:20:56;31.93;;;25.70;;
16199;SDS011;8207;52.494;4.654;2022-09-24T00:23:23;32.07;;;25.43;;
16199;SDS011;8207;52.494;4.654;2022-09-24T00:25:52;33.67;;;25.13;;
16199;SDS011;8207;52.494;4.654;2022-09-24T00:28:50;33.97;;;25.33;;
16199;SDS011;8207;52.494;4.654;2022-09-24T00:31:18;28.40;;;22.17;;
16199;SDS011;8207;52.494;4.654;2022-09-24T00:33:45;25.83;;;19.87;;
16199;SDS011;8207;52.494;4.654;2022-09-24T00:36:16;37.53;;;28.17;;
16199;SDS011;8207;52.494;4.654;2022-09-24T00:38:44;33.30;;;25.53;;
16199;SDS011;8207;52.494;4.654;2022-09-24T00:41:15;34.80;;;26.40;;
16199;SDS011;8207;52.494;4.654;2022-09-24T00:43:44;36.17;;;27.27;;
16199;SDS011;8207;52.494;4.654;2022-09-24T00:46:13;32.47;;;24.67;;
16199;SDS011;8207;52.494;4.654;2022-09-24T00:48:44;30.47;;;23.57;;
16199;SDS011;8207;52.494;4.654;2022-09-24T00:51:13;31.53;;;23.33;;
16199;SDS011;8207;52.494;4.654;2022-09-24T00:53:42;33.67;;;25.57;;
16199;SDS011;8207;52.494;4.654;2022-09-24T00:56:10;28.23;;;22.13;;
16199;SDS011;8207;52.494;4.654;2022-09-24T00:58:41;38.37;;;28.33;;
16199;SDS011;8207;52.494;4.654;2022-09-24T01:01:11;33.97;;;25.53;;
16199;SDS011;8207;52.494;4.654;2022-09-24T01:03:39;36.73;;;27.73;;
16199;SDS011;8207;52.494;4.654;2022-09-24T01:06:07;36.23;;;27.17;;
16199;SDS011;8207;52.494;4.654;2022-09-24T01:08:34;32.60;;;25.30;;
16199;SDS011;8207;52.494;4.654;2022-09-24T01:11:18;32.70;;;26.37;;
16199;SDS011;8207;52.494;4.654;2022-09-24T01:14:08;34.20;;;25.93;;
16199;SDS011;8207;52.494;4.654;2022-09-24T01:17:07;26.93;;;21.20;;
16199;SDS011;8207;52.494;4.654;2022-09-24T01:19:54;25.60;;;20.00;;
16199;SDS011;8207;52.494;4.654;2022-09-24T01:22:41;33.83;;;26.70;;
16199;SDS011;8207;52.494;4.654;2022-09-24T01:25:23;28.93;;;22.57;;
16199;SDS011;8207;52.494;4.654;2022-09-24T01:28:02;29.30;;;22.10;;
16199;SDS011;8207;52.494;4.654;2022-09-24T01:30:44;37.40;;;27.87;;
16199;SDS011;8207;52.494;4.654;2022-09-24T01:33:15;38.60;;;29.10;;
16199;SDS011;8207;52.494;4.654;2022-09-24T01:35:46;36.43;;;26.17;;
16199;SDS011;8207;52.494;4.654;2022-09-24T01:38:18;38.90;;;28.93;;
16199;SDS011;8207;52.494;4.654;2022-09-24T01:40:49;33.13;;;25.30;;
16199;SDS011;8207;52.494;4.654;2022-09-24T01:43:17;36.80;;;27.87;;
16199;SDS011;8207;52.494;4.654;2022-09-24T01:45:49;34.87;;;26.40;;
16199;SDS011;8207;52.494;4.654;2022-09-24T01:48:17;26.17;;;20.97;;
16199;SDS011;8207;52.494;4.654;2022-09-24T01:50:47;31.17;;;22.90;;
16199;SDS011;8207;52.494;4.654;2022-09-24T01:53:20;24.30;;;20.27;;
16199;SDS011;8207;52.494;4.654;2022-09-24T01:55:51;36.67;;;27.87;;
16199;SDS011;8207;52.494;4.654;2022-09-24T01:58:25;30.80;;;24.67;;
16199;SDS011;8207;52.494;4.654;2022-09-24T02:00:57;28.90;;;22.80;;
16199;SDS011;8207;52.494;4.654;2022-09-24T02:03:30;25.60;;;20.33;;
16199;SDS011;8207;52.494;4.654;2022-09-24T02:06:01;24.53;;;19.93;;
16199;SDS011;8207;52.494;4.654;2022-09-24T02:08:36;21.60;;;18.40;;
16199;SDS011;8207;52.494;4.654;2022-09-24T02:11:07;21.30;;;17.10;;
16199;SDS011;8207;52.494;4.654;2022-09-24T02:13:41;20.53;;;17.27;;
16199;SDS011;8207;52.494;4.654;2022-09-24T02:16:12;19.47;;;17.00;;
16199;SDS011;8207;52.494;4.654;2022-09-24T02:18:45;20.17;;;17.07;;
16199;SDS011;8207;52.494;4.654;2022-09-24T02:21:17;19.07;;;16.17;;
16199;SDS011;8207;52.494;4.654;2022-09-24T02:23:46;18.20;;;15.60;;
16199;SDS011;8207;52.494;4.654;2022-09-24T02:26:20;25.90;;;21.63;;
16199;SDS011;8207;52.494;4.654;2022-09-24T02:28:47;35.28;;;28.40;;
16199;SDS011;8207;52.494;4.654;2022-09-24T02:31:16;37.37;;;28.37;;
16199;SDS011;8207;52.494;4.654;2022-09-24T02:33:48;33.03;;;25.10;;
16199;SDS011;8207;52.494;4.654;2022-09-24T02:36:34;31.07;;;24.10;;
16199;SDS011;8207;52.494;4.654;2022-09-24T02:39:03;24.30;;;20.80;;
16199;SDS011;8207;52.494;4.654;2022-09-24T02:41:30;27.03;;;22.50;;
16199;SDS011;8207;52.494;4.654;2022-09-24T02:43:57;27.03;;;22.03;;
16199;SDS011;8207;52.494;4.654;2022-09-24T02:46:26;22.07;;;18.17;;
16199;SDS011;8207;52.494;4.654;2022-09-24T02:48:53;22.53;;;17.37;;
16199;SDS011;8207;52.494;4.654;2022-09-24T02:51:20;18.43;;;11.10;;
16199;SDS011;8207;52.494;4.654;2022-09-24T02:53:47;15.07;;;8.93;;
16199;SDS011;8207;52.494;4.654;2022-09-24T02:56:14;11.23;;;6.73;;
16199;SDS011;8207;52.494;4.654;2022-09-24T02:58:41;9.27;;;5.30;;
16199;SDS011;8207;52.494;4.654;2022-09-24T03:01:08;11.23;;;4.43;;
16199;SDS011;8207;52.494;4.654;2022-09-24T03:03:36;7.33;;;3.17;;
16199;SDS011;8207;52.494;4.654;2022-09-24T03:06:03;7.03;;;3.00;;
16199;SDS011;8207;52.494;4.654;2022-09-24T03:08:30;8.73;;;3.00;;
16199;SDS011;8207;52.494;4.654;2022-09-24T03:10:57;8.27;;;3.00;;
16199;SDS011;8207;52.494;4.654;2022-09-24T03:13:24;6.87;;;2.57;;
16199;SDS011;8207;52.494;4.654;2022-09-24T03:15:51;6.33;;;2.73;;
16199;SDS011;8207;52.494;4.654;2022-09-24T03:18:18;10.77;;;2.63;;
16199;SDS011;8207;52.494;4.654;2022-09-24T03:20:54;7.60;;;2.73;;
16199;SDS011;8207;52.494;4.654;2022-09-24T03:23:21;6.67;;;2.80;;
16199;SDS011;8207;52.494;4.654;2022-09-24T03:25:48;6.20;;;3.00;;
16199;SDS011;8207;52.494;4.654;2022-09-24T03:28:15;12.60;;;3.33;;
16199;SDS011;8207;52.494;4.654;2022-09-24T03:30:42;7.33;;;2.67;;
16199;SDS011;8207;52.494;4.654;2022-09-24T03:33:25;9.17;;;2.90;;
16199;SDS011;8207;52.494;4.654;2022-09-24T03:35:58;9.87;;;2.70;;
16199;SDS011;8207;52.494;4.654;2022-09-24T03:38:26;9.43;;;3.20;;
16199;SDS011;8207;52.494;4.654;2022-09-24T03:40:54;9.63;;;2.93;;
16199;SDS011;8207;52.494;4.654;2022-09-24T03:43:21;9.57;;;2.83;;
16199;SDS011;8207;52.494;4.654;2022-09-24T03:45:48;9.13;;;2.87;;
16199;SDS011;8207;52.494;4.654;2022-09-24T03:48:16;8.73;;;3.00;;
16199;SDS011;8207;52.494;4.654;2022-09-24T03:50:44;6.83;;;2.57;;
16199;SDS011;8207;52.494;4.654;2022-09-24T03:53:13;6.47;;;2.70;;
16199;SDS011;8207;52.494;4.654;2022-09-24T03:55:41;8.73;;;3.00;;
16199;SDS011;8207;52.494;4.654;2022-09-24T03:58:09;7.93;;;3.20;;
16199;SDS011;8207;52.494;4.654;2022-09-24T04:00:36;8.83;;;2.73;;
16199;SDS011;8207;52.494;4.654;2022-09-24T04:03:03;10.27;;;3.80;;
16199;SDS011;8207;52.494;4.654;2022-09-24T04:05:30;10.30;;;2.97;;
16199;SDS011;8207;52.494;4.654;2022-09-24T04:07:58;14.40;;;2.93;;
16199;SDS011;8207;52.494;4.654;2022-09-24T04:10:28;8.37;;;3.33;;
16199;SDS011;8207;52.494;4.654;2022-09-24T04:12:55;11.10;;;2.80;;
16199;SDS011;8207;52.494;4.654;2022-09-24T04:15:22;7.53;;;2.70;;
16199;SDS011;8207;52.494;4.654;2022-09-24T04:17:49;11.17;;;2.47;;
16199;SDS011;8207;52.494;4.654;2022-09-24T04:20:17;12.20;;;2.70;;
16199;SDS011;8207;52.494;4.654;2022-09-24T04:22:47;10.73;;;3.40;;
16199;SDS011;8207;52.494;4.654;2022-09-24T04:25:14;10.07;;;3.03;;
16199;SDS011;8207;52.494;4.654;2022-09-24T04:27:43;9.23;;;2.67;;
16199;SDS011;8207;52.494;4.654;2022-09-24T04:30:10;11.33;;;2.80;;
16199;SDS011;8207;52.494;4.654;2022-09-24T04:32:38;7.37;;;2.27;;
16199;SDS011;8207;52.494;4.654;2022-09-24T04:35:05;7.20;;;2.77;;
16199;SDS011;8207;52.494;4.654;2022-09-24T04:37:33;10.53;;;3.03;;
16199;SDS011;8207;52.494;4.654;2022-09-24T04:40:01;7.70;;;3.00;;
16199;SDS011;8207;52.494;4.654;2022-09-24T04:42:28;8.83;;;2.77;;
16199;SDS011;8207;52.494;4.654;2022-09-24T04:44:56;7.50;;;2.90;;
16199;SDS011;8207;52.494;4.654;2022-09-24T04:47:23;5.03;;;2.50;;
16199;SDS011;8207;52.494;4.654;2022-09-24T04:49:51;14.57;;;3.00;;
16199;SDS011;8207;52.494;4.654;2022-09-24T04:52:18;7.17;;;3.10;;
16199;SDS011;8207;52.494;4.654;2022-09-24T04:54:45;7.07;;;2.93;;
16199;SDS011;8207;52.494;4.654;2022-09-24T04:57:12;8.47;;;3.07;;
16199;SDS011;8207;52.494;4.654;2022-09-24T04:59:40;10.03;;;2.90;;
16199;SDS011;8207;52.494;4.654;2022-09-24T05:02:08;10.90;;;3.57;;
16199;SDS011;8207;52.494;4.654;2022-09-24T05:04:35;7.13;;;2.40;;
16199;SDS011;8207;52.494;4.654;2022-09-24T05:07:03;7.83;;;3.07;;
16199;SDS011;8207;52.494;4.654;2022-09-24T05:09:30;12.90;;;3.40;;
16199;SDS011;8207;52.494;4.654;2022-09-24T05:11:57;9.63;;;3.40;;
16199;SDS011;8207;52.494;4.654;2022-09-24T05:14:24;12.70;;;3.10;;
16199;SDS011;8207;52.494;4.654;2022-09-24T05:16:51;6.80;;;2.87;;
16199;SDS011;8207;52.494;4.654;2022-09-24T05:19:20;12.10;;;3.60;;
16199;SDS011;8207;52.494;4.654;2022-09-24T05:21:47;4.90;;;2.60;;
16199;SDS011;8207;52.494;4.654;2022-09-24T05:24:15;10.93;;;3.13;;
16199;SDS011;8207;52.494;4.654;2022-09-24T05:26:42;10.40;;;3.20;;
16199;SDS011;8207;52.494;4.654;2022-09-24T05:29:38;8.20;;;3.00;;
16199;SDS011;8207;52.494;4.654;2022-09-24T05:32:08;8.83;;;2.73;;
16199;SDS011;8207;52.494;4.654;2022-09-24T05:34:37;12.40;;;3.63;;
16199;SDS011;8207;52.494;4.654;2022-09-24T05:37:05;12.03;;;2.80;;
16199;SDS011;8207;52.494;4.654;2022-09-24T05:39:32;13.47;;;2.90;;
16199;SDS011;8207;52.494;4.654;2022-09-24T05:41:59;10.63;;;3.33;;
16199;SDS011;8207;52.494;4.654;2022-09-24T05:44:27;12.97;;;3.00;;
16199;SDS011;8207;52.494;4.654;2022-09-24T05:46:55;12.47;;;2.87;;
16199;SDS011;8207;52.494;4.654;2022-09-24T05:49:22;14.70;;;2.90;;
16199;SDS011;8207;52.494;4.654;2022-09-24T05:51:50;17.10;;;3.17;;
16199;SDS011;8207;52.494;4.654;2022-09-24T05:54:18;8.53;;;2.57;;
16199;SDS011;8207;52.494;4.654;2022-09-24T05:56:45;9.67;;;2.40;;
16199;SDS011;8207;52.494;4.654;2022-09-24T05:59:12;13.73;;;3.20;;
16199;SDS011;8207;52.494;4.654;2022-09-24T06:01:39;11.33;;;2.53;;
16199;SDS011;8207;52.494;4.654;2022-09-24T06:04:06;11.60;;;2.70;;
16199;SDS011;8207;52.494;4.654;2022-09-24T06:06:35;8.47;;;2.60;;
16199;SDS011;8207;52.494;4.654;2022-09-24T06:09:03;9.67;;;2.47;;
16199;SDS011;8207;52.494;4.654;2022-09-24T06:11:32;10.70;;;2.37;;
16199;SDS011;8207;52.494;4.654;2022-09-24T06:14:00;11.13;;;2.73;;
16199;SDS011;8207;52.494;4.654;2022-09-24T06:16:28;12.10;;;2.00;;
16199;SDS011;8207;52.494;4.654;2022-09-24T06:18:57;12.00;;;3.10;;
16199;SDS011;8207;52.494;4.654;2022-09-24T06:21:24;13.00;;;2.43;;
16199;SDS011;8207;52.494;4.654;2022-09-24T06:23:51;16.73;;;2.60;;
16199;SDS011;8207;52.494;4.654;2022-09-24T06:26:19;10.63;;;2.40;;
16199;SDS011;8207;52.494;4.654;2022-09-24T06:28:46;12.23;;;2.90;;
16199;SDS011;8207;52.494;4.654;2022-09-24T06:31:13;9.30;;;2.73;;
16199;SDS011;8207;52.494;4.654;2022-09-24T06:33:40;11.90;;;2.60;;
16199;SDS011;8207;52.494;4.654;2022-09-24T06:36:07;11.83;;;2.50;;
16199;SDS011;8207;52.494;4.654;2022-09-24T06:38:34;8.83;;;2.13;;
16199;SDS011;8207;52.494;4.654;2022-09-24T06:41:04;9.03;;;2.53;;
16199;SDS011;8207;52.494;4.654;2022-09-24T06:43:33;9.83;;;2.93;;
16199;SDS011;8207;52.494;4.654;2022-09-24T06:46:00;9.47;;;2.23;;
16199;SDS011;8207;52.494;4.654;2022-09-24T06:48:28;10.03;;;2.87;;
16199;SDS011;8207;52.494;4.654;2022-09-24T06:50:56;12.83;;;3.13;;
16199;SDS011;8207;52.494;4.654;2022-09-24T06:53:23;12.83;;;2.23;;
16199;SDS011;8207;52.494;4.654;2022-09-24T06:55:50;7.93;;;2.50;;
16199;SDS011;8207;52.494;4.654;2022-09-24T06:58:18;15.47;;;3.13;;
16199;SDS011;8207;52.494;4.654;2022-09-24T07:00:50;8.13;;;1.73;;
16199;SDS011;8207;52.494;4.654;2022-09-24T07:03:18;8.30;;;1.77;;
16199;SDS011;8207;52.494;4.654;2022-09-24T07:05:46;7.23;;;2.20;;
16199;SDS011;8207;52.494;4.654;2022-09-24T07:08:13;10.43;;;2.40;;
16199;SDS011;8207;52.494;4.654;2022-09-24T07:10:41;12.57;;;2.57;;
16199;SDS011;8207;52.494;4.654;2022-09-24T07:13:09;8.83;;;2.30;;
16199;SDS011;8207;52.494;4.654;2022-09-24T07:15:37;7.80;;;2.93;;
16199;SDS011;8207;52.494;4.654;2022-09-24T07:18:05;12.27;;;2.63;;
16199;SDS011;8207;52.494;4.654;2022-09-24T07:20:32;8.60;;;2.00;;
16199;SDS011;8207;52.494;4.654;2022-09-24T07:23:01;6.20;;;2.33;;
16199;SDS011;8207;52.494;4.654;2022-09-24T07:25:29;10.93;;;2.33;;
16199;SDS011;8207;52.494;4.654;2022-09-24T07:27:59;13.17;;;2.30;;
16199;SDS011;8207;52.494;4.654;2022-09-24T07:30:27;9.53;;;2.17;;
16199;SDS011;8207;52.494;4.654;2022-09-24T07:32:54;12.10;;;2.63;;
16199;SDS011;8207;52.494;4.654;2022-09-24T07:35:23;7.32;;;2.20;;
16199;SDS011;8207;52.494;4.654;2022-09-24T07:37:57;11.60;;;3.20;;
16199;SDS011;8207;52.494;4.654;2022-09-24T07:40:24;7.93;;;1.87;;
16199;SDS011;8207;52.494;4.654;2022-09-24T07:42:52;10.40;;;2.73;;
16199;SDS011;8207;52.494;4.654;2022-09-24T07:45:19;10.23;;;2.40;;
16199;SDS011;8207;52.494;4.654;2022-09-24T07:47:46;10.27;;;2.60;;
16199;SDS011;8207;52.494;4.654;2022-09-24T07:50:13;8.57;;;2.10;;
16199;SDS011;8207;52.494;4.654;2022-09-24T07:52:43;12.90;;;2.37;;
16199;SDS011;8207;52.494;4.654;2022-09-24T07:55:15;7.37;;;1.93;;
16199;SDS011;8207;52.494;4.654;2022-09-24T07:57:45;7.30;;;1.93;;
16199;SDS011;8207;52.494;4.654;2022-09-24T08:00:13;11.27;;;2.07;;
16199;SDS011;8207;52.494;4.654;2022-09-24T08:02:41;10.63;;;2.67;;
16199;SDS011;8207;52.494;4.654;2022-09-24T08:05:09;7.57;;;1.90;;
16199;SDS011;8207;52.494;4.654;2022-09-24T08:07:36;6.97;;;1.92;;
16199;SDS011;8207;52.494;4.654;2022-09-24T08:10:05;7.57;;;2.40;;
16199;SDS011;8207;52.494;4.654;2022-09-24T08:12:33;8.83;;;2.33;;
16199;SDS011;8207;52.494;4.654;2022-09-24T08:15:00;9.57;;;2.17;;
16199;SDS011;8207;52.494;4.654;2022-09-24T08:17:27;6.03;;;1.87;;
16199;SDS011;8207;52.494;4.654;2022-09-24T08:19:54;9.83;;;2.23;;
16199;SDS011;8207;52.494;4.654;2022-09-24T08:22:21;8.90;;;1.77;;
16199;SDS011;8207;52.494;4.654;2022-09-24T08:24:49;10.30;;;1.77;;
16199;SDS011;8207;52.494;4.654;2022-09-24T08:27:17;5.23;;;1.63;;
16199;SDS011;8207;52.494;4.654;2022-09-24T08:29:45;8.03;;;1.60;;
16199;SDS011;8207;52.494;4.654;2022-09-24T08:32:12;6.13;;;1.80;;
16199;SDS011;8207;52.494;4.654;2022-09-24T08:34:39;7.80;;;1.87;;
16199;SDS011;8207;52.494;4.654;2022-09-24T08:37:06;7.67;;;1.60;;
16199;SDS011;8207;52.494;4.654;2022-09-24T08:39:33;7.83;;;1.90;;
16199;SDS011;8207;52.494;4.654;2022-09-24T08:42:01;5.93;;;1.70;;
16199;SDS011;8207;52.494;4.654;2022-09-24T08:44:35;12.20;;;2.07;;
16199;SDS011;8207;52.494;4.654;2022-09-24T08:47:32;6.00;;;1.70;;
16199;SDS011;8207;52.494;4.654;2022-09-24T08:50:07;7.47;;;1.87;;
16199;SDS011;8207;52.494;4.654;2022-09-24T08:52:43;8.53;;;1.73;;
16199;SDS011;8207;52.494;4.654;2022-09-24T08:55:17;12.67;;;1.90;;
16199;SDS011;8207;52.494;4.654;2022-09-24T08:57:49;6.82;;;1.85;;
16199;SDS011;8207;52.494;4.654;2022-09-24T09:00:25;4.57;;;1.67;;
16199;SDS011;8207;52.494;4.654;2022-09-24T09:02:57;12.13;;;1.80;;
16199;SDS011;8207;52.494;4.654;2022-09-24T09:05:36;8.25;;;1.60;;
16199;SDS011;8207;52.494;4.654;2022-09-24T09:08:16;8.40;;;1.77;;
16199;SDS011;8207;52.494;4.654;2022-09-24T09:10:48;7.32;;;1.30;;
16199;SDS011;8207;52.494;4.654;2022-09-24T09:13:22;5.88;;;1.55;;
16199;SDS011;8207;52.494;4.654;2022-09-24T09:15:59;6.85;;;1.35;;
16199;SDS011;8207;52.494;4.654;2022-09-24T09:18:31;6.57;;;1.40;;
16199;SDS011;8207;52.494;4.654;2022-09-24T09:21:05;6.17;;;1.30;;
16199;SDS011;8207;52.494;4.654;2022-09-24T09:23:40;5.80;;;1.23;;
16199;SDS011;8207;52.494;4.654;2022-09-24T09:26:12;7.10;;;1.48;;
16199;SDS011;8207;52.494;4.654;2022-09-24T09:28:41;5.93;;;1.27;;
16199;SDS011;8207;52.494;4.654;2022-09-24T09:31:13;4.03;;;1.17;;
16199;SDS011;8207;52.494;4.654;2022-09-24T09:33:52;5.50;;;1.63;;
16199;SDS011;8207;52.494;4.654;2022-09-24T09:36:33;6.78;;;1.17;;
16199;SDS011;8207;52.494;4.654;2022-09-24T09:39:14;6.03;;;1.42;;
16199;SDS011;8207;52.494;4.654;2022-09-24T09:41:56;5.18;;;1.17;;
16199;SDS011;8207;52.494;4.654;2022-09-24T09:44:36;5.67;;;1.37;;
16199;SDS011;8207;52.494;4.654;2022-09-24T09:47:10;7.10;;;1.30;;
16199;SDS011;8207;52.494;4.654;2022-09-24T09:49:46;5.57;;;1.30;;
16199;SDS011;8207;52.494;4.654;2022-09-24T09:52:17;5.10;;;1.30;;
16199;SDS011;8207;52.494;4.654;2022-09-24T09:54:45;9.20;;;1.35;;
16199;SDS011;8207;52.494;4.654;2022-09-24T09:57:13;4.35;;;1.17;;
16199;SDS011;8207;52.494;4.654;2022-09-24T09:59:44;4.47;;;1.30;;
16199;SDS011;8207;52.494;4.654;2022-09-24T10:02:19;5.95;;;1.40;;
16199;SDS011;8207;52.494;4.654;2022-09-24T10:04:51;4.43;;;1.40;;
16199;SDS011;8207;52.494;4.654;2022-09-24T10:07:20;4.50;;;1.35;;
16199;SDS011;8207;52.494;4.654;2022-09-24T10:09:56;5.32;;;1.50;;
16199;SDS011;8207;52.494;4.654;2022-09-24T10:12:28;8.25;;;1.60;;
16199;SDS011;8207;52.494;4.654;2022-09-24T10:14:56;5.07;;;1.65;;
16199;SDS011;8207;52.494;4.654;2022-09-24T10:17:27;7.88;;;1.80;;
16199;SDS011;8207;52.494;4.654;2022-09-24T10:19:59;9.05;;;1.52;;
16199;SDS011;8207;52.494;4.654;2022-09-24T10:22:27;5.80;;;1.20;;
16199;SDS011;8207;52.494;4.654;2022-09-24T10:24:56;9.25;;;1.58;;
16199;SDS011;8207;52.494;4.654;2022-09-24T10:27:30;7.38;;;1.30;;
16199;SDS011;8207;52.494;4.654;2022-09-24T10:29:59;4.72;;;1.45;;
16199;SDS011;8207;52.494;4.654;2022-09-24T10:32:45;5.00;;;1.48;;
16199;SDS011;8207;52.494;4.654;2022-09-24T10:35:24;3.88;;;1.10;;
16199;SDS011;8207;52.494;4.654;2022-09-24T10:37:53;5.78;;;1.73;;
16199;SDS011;8207;52.494;4.654;2022-09-24T10:40:22;3.97;;;1.40;;
16199;SDS011;8207;52.494;4.654;2022-09-24T10:42:59;7.45;;;1.58;;
16199;SDS011;8207;52.494;4.654;2022-09-24T10:48:20;7.57;;;1.80;;
16199;SDS011;8207;52.494;4.654;2022-09-24T10:50:50;7.07;;;1.52;;
16199;SDS011;8207;52.494;4.654;2022-09-24T10:53:30;10.18;;;1.85;;
16199;SDS011;8207;52.494;4.654;2022-09-24T10:56:08;7.78;;;1.90;;
16199;SDS011;8207;52.494;4.654;2022-09-24T10:58:49;8.95;;;2.15;;
16199;SDS011;8207;52.494;4.654;2022-09-24T11:01:38;5.47;;;1.50;;
16199;SDS011;8207;52.494;4.654;2022-09-24T11:04:21;7.20;;;1.30;;
16199;SDS011;8207;52.494;4.654;2022-09-24T11:07:08;6.90;;;1.60;;
16199;SDS011;8207;52.494;4.654;2022-09-24T11:09:50;5.03;;;1.65;;
16199;SDS011;8207;52.494;4.654;2022-09-24T11:12:22;5.47;;;1.13;;
16199;SDS011;8207;52.494;4.654;2022-09-24T11:15:06;3.60;;;1.10;;
16199;SDS011;8207;52.494;4.654;2022-09-24T11:17:46;4.50;;;0.98;;
16199;SDS011;8207;52.494;4.654;2022-09-24T11:20:30;3.78;;;1.10;;
16199;SDS011;8207;52.494;4.654;2022-09-24T11:26:02;5.95;;;1.05;;
16199;SDS011;8207;52.494;4.654;2022-09-24T11:28:44;7.38;;;1.30;;
16199;SDS011;8207;52.494;4.654;2022-09-24T11:31:32;4.50;;;1.40;;
16199;SDS011;8207;52.494;4.654;2022-09-24T11:34:07;6.32;;;1.20;;
16199;SDS011;8207;52.494;4.654;2022-09-24T11:36:49;5.10;;;0.90;;
16199;SDS011;8207;52.494;4.654;2022-09-24T11:39:28;5.50;;;1.30;;
16199;SDS011;8207;52.494;4.654;2022-09-24T11:42:07;6.35;;;1.63;;
16199;SDS011;8207;52.494;4.654;2022-09-24T11:45:00;5.20;;;1.20;;
16199;SDS011;8207;52.494;4.654;2022-09-24T11:47:51;5.53;;;1.10;;
16199;SDS011;8207;52.494;4.654;2022-09-24T11:50:45;3.45;;;0.95;;
16199;SDS011;8207;52.494;4.654;2022-09-24T11:53:25;4.80;;;1.50;;
16199;SDS011;8207;52.494;4.654;2022-09-24T11:56:00;3.58;;;1.15;;
16199;SDS011;8207;52.494;4.654;2022-09-24T11:58:33;2.67;;;0.93;;
16199;SDS011;8207;52.494;4.654;2022-09-24T12:01:08;5.38;;;1.48;;
16199;SDS011;8207;52.494;4.654;2022-09-24T12:03:38;3.97;;;1.23;;
16199;SDS011;8207;52.494;4.654;2022-09-24T12:06:14;3.17;;;0.98;;
16199;SDS011;8207;52.494;4.654;2022-09-24T12:08:47;5.35;;;1.60;;
16199;SDS011;8207;52.494;4.654;2022-09-24T12:11:21;6.45;;;1.30;;
16199;SDS011;8207;52.494;4.654;2022-09-24T12:13:55;6.90;;;1.23;;
16199;SDS011;8207;52.494;4.654;2022-09-24T12:16:30;6.30;;;1.38;;
16199;SDS011;8207;52.494;4.654;2022-09-24T12:19:02;5.78;;;1.10;;
16199;SDS011;8207;52.494;4.654;2022-09-24T12:21:37;7.60;;;1.75;;
16199;SDS011;8207;52.494;4.654;2022-09-24T12:24:09;4.00;;;1.45;;
16199;SDS011;8207;52.494;4.654;2022-09-24T12:26:40;3.08;;;1.27;;
16199;SDS011;8207;52.494;4.654;2022-09-24T12:29:14;4.50;;;1.17;;
16199;SDS011;8207;52.494;4.654;2022-09-24T12:32:16;2.30;;;0.90;;
16199;SDS011;8207;52.494;4.654;2022-09-24T12:35:06;4.82;;;1.17;;
16199;SDS011;8207;52.494;4.654;2022-09-24T12:37:42;4.00;;;1.00;;
16199;SDS011;8207;52.494;4.654;2022-09-24T12:40:18;3.55;;;1.20;;
16199;SDS011;8207;52.494;4.654;2022-09-24T12:43:18;6.18;;;1.27;;
16199;SDS011;8207;52.494;4.654;2022-09-24T12:45:52;5.97;;;0.98;;
16199;SDS011;8207;52.494;4.654;2022-09-24T12:48:21;3.70;;;1.17;;
16199;SDS011;8207;52.494;4.654;2022-09-24T12:50:54;5.28;;;1.10;;
16199;SDS011;8207;52.494;4.654;2022-09-24T12:53:24;4.93;;;1.10;;
16199;SDS011;8207;52.494;4.654;2022-09-24T12:56:00;3.58;;;0.90;;
16199;SDS011;8207;52.494;4.654;2022-09-24T12:58:29;4.75;;;1.20;;
16199;SDS011;8207;52.494;4.654;2022-09-24T13:01:12;5.85;;;1.50;;
16199;SDS011;8207;52.494;4.654;2022-09-24T13:04:00;4.45;;;1.13;;
16199;SDS011;8207;52.494;4.654;2022-09-24T13:06:32;2.65;;;1.00;;
16199;SDS011;8207;52.494;4.654;2022-09-24T13:09:01;5.28;;;1.25;;
16199;SDS011;8207;52.494;4.654;2022-09-24T13:11:31;2.50;;;1.10;;
16199;SDS011;8207;52.494;4.654;2022-09-24T13:14:05;6.00;;;1.40;;
16199;SDS011;8207;52.494;4.654;2022-09-24T13:16:46;5.55;;;1.83;;
16199;SDS011;8207;52.494;4.654;2022-09-24T13:19:21;3.70;;;1.10;;
16199;SDS011;8207;52.494;4.654;2022-09-24T13:21:52;3.30;;;1.02;;
16199;SDS011;8207;52.494;4.654;2022-09-24T13:24:27;3.40;;;1.00;;
16199;SDS011;8207;52.494;4.654;2022-09-24T13:27:16;4.43;;;1.08;;
16199;SDS011;8207;52.494;4.654;2022-09-24T13:29:47;5.00;;;1.00;;
16199;SDS011;8207;52.494;4.654;2022-09-24T13:32:27;2.05;;;0.80;;
16199;SDS011;8207;52.494;4.654;2022-09-24T13:35:01;3.03;;;0.82;;
16199;SDS011;8207;52.494;4.654;2022-09-24T13:37:32;5.90;;;1.40;;
16199;SDS011;8207;52.494;4.654;2022-09-24T13:40:05;5.65;;;1.58;;
16199;SDS011;8207;52.494;4.654;2022-09-24T13:42:44;6.60;;;1.42;;
16199;SDS011;8207;52.494;4.654;2022-09-24T13:45:16;4.95;;;2.00;;
16199;SDS011;8207;52.494;4.654;2022-09-24T13:47:46;4.20;;;1.17;;
16199;SDS011;8207;52.494;4.654;2022-09-24T13:50:17;8.10;;;1.10;;
16199;SDS011;8207;52.494;4.654;2022-09-24T13:52:48;4.22;;;1.00;;
16199;SDS011;8207;52.494;4.654;2022-09-24T13:55:20;4.53;;;0.90;;
16199;SDS011;8207;52.494;4.654;2022-09-24T13:57:51;5.57;;;1.30;;
16199;SDS011;8207;52.494;4.654;2022-09-24T14:00:20;5.85;;;1.10;;
16199;SDS011;8207;52.494;4.654;2022-09-24T14:02:51;5.82;;;1.15;;
16199;SDS011;8207;52.494;4.654;2022-09-24T14:05:21;4.22;;;1.40;;
16199;SDS011;8207;52.494;4.654;2022-09-24T14:07:52;3.53;;;1.15;;
16199;SDS011;8207;52.494;4.654;2022-09-24T14:10:23;1.63;;;0.90;;
16199;SDS011;8207;52.494;4.654;2022-09-24T14:13:01;1.77;;;0.90;;
16199;SDS011;8207;52.494;4.654;2022-09-24T14:15:35;4.68;;;1.08;;
16199;SDS011;8207;52.494;4.654;2022-09-24T14:18:02;4.00;;;0.85;;
16199;SDS011;8207;52.494;4.654;2022-09-24T14:20:30;2.90;;;1.05;;
16199;SDS011;8207;52.494;4.654;2022-09-24T14:23:00;4.00;;;1.27;;
16199;SDS011;8207;52.494;4.654;2022-09-24T14:25:30;4.55;;;1.20;;
16199;SDS011;8207;52.494;4.654;2022-09-24T14:28:00;3.40;;;0.95;;
16199;SDS011;8207;52.494;4.654;2022-09-24T14:30:30;4.93;;;1.02;;
16199;SDS011;8207;52.494;4.654;2022-09-24T14:33:02;4.32;;;1.50;;
16199;SDS011;8207;52.494;4.654;2022-09-24T14:35:32;9.55;;;1.23;;
16199;SDS011;8207;52.494;4.654;2022-09-24T14:38:01;2.55;;;0.75;;
16199;SDS011;8207;52.494;4.654;2022-09-24T14:40:38;7.55;;;1.35;;
16199;SDS011;8207;52.494;4.654;2022-09-24T14:43:12;4.25;;;1.30;;
16199;SDS011;8207;52.494;4.654;2022-09-24T14:45:42;6.07;;;1.50;;
16199;SDS011;8207;52.494;4.654;2022-09-24T14:48:16;4.15;;;1.10;;
16199;SDS011;8207;52.494;4.654;2022-09-24T14:50:51;3.00;;;0.98;;
16199;SDS011;8207;52.494;4.654;2022-09-24T14:53:19;4.25;;;1.15;;
16199;SDS011;8207;52.494;4.654;2022-09-24T14:55:49;3.53;;;1.00;;
16199;SDS011;8207;52.494;4.654;2022-09-24T14:58:30;5.95;;;1.27;;
16199;SDS011;8207;52.494;4.654;2022-09-24T15:01:01;4.80;;;1.10;;
16199;SDS011;8207;52.494;4.654;2022-09-24T15:03:32;4.85;;;1.45;;
16199;SDS011;8207;52.494;4.654;2022-09-24T15:06:05;4.10;;;0.90;;
16199;SDS011;8207;52.494;4.654;2022-09-24T15:08:41;4.50;;;1.02;;
16199;SDS011;8207;52.494;4.654;2022-09-24T15:11:13;4.47;;;0.93;;
16199;SDS011;8207;52.494;4.654;2022-09-24T15:13:43;4.22;;;1.00;;
16199;SDS011;8207;52.494;4.654;2022-09-24T15:16:16;3.97;;;1.00;;
16199;SDS011;8207;52.494;4.654;2022-09-24T15:18:48;4.65;;;0.95;;
16199;SDS011;8207;52.494;4.654;2022-09-24T15:21:22;3.78;;;1.00;;
16199;SDS011;8207;52.494;4.654;2022-09-24T15:23:49;4.15;;;1.02;;
16199;SDS011;8207;52.494;4.654;2022-09-24T15:26:16;4.68;;;1.75;;